Time;durP1;ratioP1;P1;durP2;ratioP2;P2;SDS_P1;SDS_P2;PMS_P1;PMS_P2;Temp;Humidity;BMP_temperature;BMP_pressure;BME280_temperature;BME280_humidity;BME280_pressure;Samples;Min_cycle;Max_cycle;Signal;HPM_P1;HPM_P2
2022/11/26 00:02:15;;;;;;;7.00;3.17;;;;;;;;;;5035937;28;20216;-64
2022/11/26 00:04:43;;;;;;;4.27;3.07;;;;;;;;;;5042993;28;20210;-66
2022/11/26 00:07:11;;;;;;;6.50;2.43;;;;;;;;;;5034344;28;20597;-66
2022/11/26 00:09:38;;;;;;;3.63;3.10;;;;;;;;;;5030076;28;20215;-66
2022/11/26 00:12:13;;;;;;;7.33;2.40;;;;;;;;;;5031447;28;20202;-65
2022/11/26 00:14:40;;;;;;;4.13;2.60;;;;;;;;;;5041227;28;20203;-65
2022/11/26 00:17:07;;;;;;;4.70;3.43;;;;;;;;;;5039630;28;20210;-64
2022/11/26 00:19:34;;;;;;;3.87;3.20;;;;;;;;;;5038540;28;20209;-64
2022/11/26 00:22:02;;;;;;;4.07;2.80;;;;;;;;;;5040303;28;20682;-64
2022/11/26 00:24:30;;;;;;;13.37;2.50;;;;;;;;;;5037766;28;20230;-63
2022/11/26 00:26:58;;;;;;;2.93;2.60;;;;;;;;;;5034188;28;20596;-64
2022/11/26 00:29:25;;;;;;;2.20;2.10;;;;;;;;;;5037647;28;20209;-66
2022/11/26 00:31:52;;;;;;;7.33;2.20;;;;;;;;;;5038661;28;20212;-63
2022/11/26 00:34:19;;;;;;;2.27;2.07;;;;;;;;;;5033729;28;20207;-66
2022/11/26 00:36:47;;;;;;;4.40;2.33;;;;;;;;;;5037031;28;20212;-68
2022/11/26 00:39:18;;;;;;;2.30;1.97;;;;;;;;;;5037850;28;20209;-62
2022/11/26 00:41:46;;;;;;;3.63;2.27;;;;;;;;;;5039392;28;20200;-64
2022/11/26 00:44:17;;;;;;;9.57;2.40;;;;;;;;;;5041543;28;20232;-65
2022/11/26 00:46:44;;;;;;;2.13;1.97;;;;;;;;;;5036261;28;20220;-64
2022/11/26 00:49:11;;;;;;;2.70;2.37;;;;;;;;;;5030883;28;20225;-64
2022/11/26 00:51:38;;;;;;;2.37;2.20;;;;;;;;;;5033450;28;20212;-64
2022/11/26 00:54:06;;;;;;;8.83;1.90;;;;;;;;;;5038301;28;20221;-65
2022/11/26 00:56:40;;;;;;;2.30;2.10;;;;;;;;;;5040555;28;20215;-64
2022/11/26 00:59:07;;;;;;;7.00;2.33;;;;;;;;;;5031229;28;20242;-66
2022/11/26 01:01:34;;;;;;;1.73;1.53;;;;;;;;;;5029920;28;20203;-65
2022/11/26 01:04:01;;;;;;;2.10;1.77;;;;;;;;;;5033574;28;20232;-65
2022/11/26 01:06:30;;;;;;;1.40;1.30;;;;;;;;;;5040154;28;20209;-65
2022/11/26 01:08:58;;;;;;;1.63;1.50;;;;;;;;;;5043157;28;20209;-65
2022/11/26 01:11:25;;;;;;;2.23;1.43;;;;;;;;;;5031350;28;20215;-65
2022/11/26 01:13:54;;;;;;;2.03;1.00;;;;;;;;;;5029463;28;20215;-65
2022/11/26 01:16:22;;;;;;;5.87;1.53;;;;;;;;;;5030247;28;20252;-65
2022/11/26 01:18:50;;;;;;;3.17;1.57;;;;;;;;;;5034859;28;20223;-65
2022/11/26 01:21:17;;;;;;;5.70;1.50;;;;;;;;;;5046621;28;20962;-64
2022/11/26 01:23:45;;;;;;;3.00;1.40;;;;;;;;;;5048892;28;20734;-64
2022/11/26 01:26:15;;;;;;;5.03;1.50;;;;;;;;;;5028718;28;20215;-64
2022/11/26 01:28:51;;;;;;;5.23;1.77;;;;;;;;;;5029280;28;20209;-64
2022/11/26 01:31:21;;;;;;;1.87;1.40;;;;;;;;;;5029535;28;20699;-65
2022/11/26 01:33:48;;;;;;;7.57;1.43;;;;;;;;;;5031450;28;20204;-65
2022/11/26 01:36:20;;;;;;;1.43;1.37;;;;;;;;;;5046306;28;20211;-65
2022/11/26 01:38:47;;;;;;;2.60;1.30;;;;;;;;;;5029241;28;20328;-65
2022/11/26 01:41:17;;;;;;;0.80;0.77;;;;;;;;;;5044232;28;20676;-65
2022/11/26 01:43:44;;;;;;;1.40;1.30;;;;;;;;;;5039151;28;20232;-65
2022/11/26 01:46:14;;;;;;;7.33;1.53;;;;;;;;;;5032772;28;20577;-65
2022/11/26 01:48:43;;;;;;;6.30;1.70;;;;;;;;;;5037096;28;20209;-65
2022/11/26 01:51:11;;;;;;;7.43;1.77;;;;;;;;;;5040822;28;20690;-65
2022/11/26 01:53:42;;;;;;;1.03;0.90;;;;;;;;;;5039026;28;20200;-64
2022/11/26 01:56:27;;;;;;;3.80;1.60;;;;;;;;;;5035357;28;20248;-64
2022/11/26 01:58:57;;;;;;;3.10;1.30;;;;;;;;;;5041517;28;20228;-65
2022/11/26 02:01:24;;;;;;;2.30;1.30;;;;;;;;;;5041461;28;20208;-65
2022/11/26 02:03:56;;;;;;;3.63;2.10;;;;;;;;;;5043783;28;20278;-65
2022/11/26 02:06:26;;;;;;;5.23;1.50;;;;;;;;;;5041438;28;20666;-65
2022/11/26 02:08:53;;;;;;;1.13;1.03;;;;;;;;;;5038864;28;20226;-65
2022/11/26 02:11:21;;;;;;;1.60;1.50;;;;;;;;;;5038212;28;20204;-65
2022/11/26 02:13:50;;;;;;;1.30;1.20;;;;;;;;;;5041536;28;20289;-65
2022/11/26 02:16:22;;;;;;;8.30;1.07;;;;;;;;;;5037390;28;20555;-65
2022/11/26 02:18:52;;;;;;;6.20;1.57;;;;;;;;;;5039355;28;20200;-64
2022/11/26 02:21:25;;;;;;;3.40;1.20;;;;;;;;;;5040412;28;20220;-65
2022/11/26 02:24:13;;;;;;;1.33;1.10;;;;;;;;;;5039851;28;20234;-64
2022/11/26 02:26:48;;;;;;;3.53;0.90;;;;;;;;;;5039288;28;20214;-65
2022/11/26 02:29:19;;;;;;;2.10;1.50;;;;;;;;;;5033985;28;20215;-65
2022/11/26 02:31:49;;;;;;;1.07;1.07;;;;;;;;;;5037347;28;20205;-64
2022/11/26 02:34:19;;;;;;;1.93;1.03;;;;;;;;;;5041539;28;20204;-65
2022/11/26 02:36:54;;;;;;;1.53;0.70;;;;;;;;;;5039873;28;20209;-65
2022/11/26 02:39:23;;;;;;;1.80;1.00;;;;;;;;;;5038807;28;20298;-64
2022/11/26 02:41:51;;;;;;;2.40;1.23;;;;;;;;;;5036452;28;20193;-64
2022/11/26 02:44:20;;;;;;;8.97;1.63;;;;;;;;;;5039192;28;20220;-65
2022/11/26 02:46:51;;;;;;;10.23;1.60;;;;;;;;;;5037669;28;20206;-64
2022/11/26 02:49:21;;;;;;;1.13;1.03;;;;;;;;;;5039660;28;20306;-64
2022/11/26 02:51:49;;;;;;;3.27;0.73;;;;;;;;;;5040450;28;20208;-65
2022/11/26 02:54:16;;;;;;;1.07;1.07;;;;;;;;;;5035272;28;20288;-64
2022/11/26 02:56:43;;;;;;;1.77;1.30;;;;;;;;;;5040288;28;20209;-65
2022/11/26 02:59:11;;;;;;;0.90;0.90;;;;;;;;;;5033279;28;20701;-64
2022/11/26 03:01:41;;;;;;;6.17;1.67;;;;;;;;;;5033819;28;20672;-65
2022/11/26 03:04:12;;;;;;;2.43;1.47;;;;;;;;;;5043022;28;20722;-65
2022/11/26 03:06:39;;;;;;;2.20;1.13;;;;;;;;;;5032654;28;20215;-64
2022/11/26 03:09:07;;;;;;;1.10;1.10;;;;;;;;;;5036288;28;20208;-64
2022/11/26 03:11:34;;;;;;;2.00;1.40;;;;;;;;;;5031633;28;20214;-65
2022/11/26 03:14:01;;;;;;;2.17;1.27;;;;;;;;;;5035866;28;20305;-65
2022/11/26 03:16:29;;;;;;;1.30;1.20;;;;;;;;;;5045933;28;20204;-64
2022/11/26 03:18:56;;;;;;;5.10;1.33;;;;;;;;;;5045889;28;20637;-65
2022/11/26 03:21:24;;;;;;;3.53;1.00;;;;;;;;;;5046638;28;20210;-64
2022/11/26 03:23:52;;;;;;;0.73;0.73;;;;;;;;;;5045823;28;20229;-65
2022/11/26 03:26:19;;;;;;;1.43;1.07;;;;;;;;;;5036111;28;20211;-65
2022/11/26 03:28:46;;;;;;;2.63;1.30;;;;;;;;;;5046657;28;20207;-65
2022/11/26 03:31:13;;;;;;;3.77;1.30;;;;;;;;;;5042541;28;20204;-64
2022/11/26 03:33:40;;;;;;;0.97;0.97;;;;;;;;;;5041395;28;20663;-65
2022/11/26 03:36:07;;;;;;;2.63;1.37;;;;;;;;;;5048501;28;20244;-65
2022/11/26 03:38:36;;;;;;;2.73;1.07;;;;;;;;;;5042369;28;20215;-65
2022/11/26 03:41:04;;;;;;;1.63;1.53;;;;;;;;;;5048923;28;20222;-65
2022/11/26 03:43:31;;;;;;;2.27;1.57;;;;;;;;;;5044494;28;20205;-64
2022/11/26 03:45:58;;;;;;;5.80;1.13;;;;;;;;;;5035993;28;20215;-64
2022/11/26 03:48:25;;;;;;;5.90;1.53;;;;;;;;;;5034621;28;20227;-64
2022/11/26 03:50:52;;;;;;;2.70;1.77;;;;;;;;;;5040763;28;20208;-64
2022/11/26 03:53:19;;;;;;;2.60;1.13;;;;;;;;;;5033035;28;20739;-64
2022/11/26 03:55:48;;;;;;;1.80;1.70;;;;;;;;;;5045994;28;20625;-65
2022/11/26 03:58:15;;;;;;;3.10;1.53;;;;;;;;;;5037493;28;20267;-64
2022/11/26 04:00:42;;;;;;;1.20;1.10;;;;;;;;;;5045175;28;20206;-64
2022/11/26 04:03:09;;;;;;;4.77;1.10;;;;;;;;;;5042953;28;20693;-64
2022/11/26 04:05:36;;;;;;;7.60;1.37;;;;;;;;;;5044163;28;20227;-65
2022/11/26 04:08:03;;;;;;;3.33;1.47;;;;;;;;;;5039349;28;20206;-64
2022/11/26 04:10:30;;;;;;;7.63;0.90;;;;;;;;;;5040120;28;20204;-64
2022/11/26 04:12:59;;;;;;;2.83;1.13;;;;;;;;;;5032665;28;20208;-65
2022/11/26 04:15:26;;;;;;;4.40;2.07;;;;;;;;;;5039813;28;20549;-64
2022/11/26 04:17:53;;;;;;;4.03;0.90;;;;;;;;;;5035030;28;20220;-64
2022/11/26 04:20:20;;;;;;;3.90;1.20;;;;;;;;;;5037024;28;20200;-64
2022/11/26 04:22:47;;;;;;;2.33;1.20;;;;;;;;;;5048764;28;20851;-65
2022/11/26 04:25:14;;;;;;;3.90;1.17;;;;;;;;;;5030356;28;20778;-64
2022/11/26 04:27:41;;;;;;;3.30;0.90;;;;;;;;;;5039150;28;20589;-64
2022/11/26 04:30:10;;;;;;;8.63;1.40;;;;;;;;;;5036543;28;20204;-65
2022/11/26 04:32:38;;;;;;;1.57;1.47;;;;;;;;;;5045572;28;20211;-66
2022/11/26 04:35:06;;;;;;;4.83;1.50;;;;;;;;;;5045390;28;20196;-65
2022/11/26 04:37:33;;;;;;;0.83;0.83;;;;;;;;;;5029251;28;20200;-64
2022/11/26 04:40:00;;;;;;;5.83;0.90;;;;;;;;;;5031526;28;20214;-65
2022/11/26 04:42:27;;;;;;;4.43;1.13;;;;;;;;;;5045196;28;20221;-65
2022/11/26 04:44:54;;;;;;;2.70;1.27;;;;;;;;;;5037074;28;20224;-65
2022/11/26 04:47:23;;;;;;;1.87;1.10;;;;;;;;;;5032897;28;20578;-65
2022/11/26 04:49:50;;;;;;;6.57;1.73;;;;;;;;;;5030838;28;20197;-65
2022/11/26 04:52:17;;;;;;;3.53;1.10;;;;;;;;;;5029849;28;20663;-65
2022/11/26 04:54:44;;;;;;;1.17;1.17;;;;;;;;;;5029587;28;20326;-65
2022/11/26 04:57:11;;;;;;;0.97;0.97;;;;;;;;;;5039924;28;20573;-65
2022/11/26 04:59:38;;;;;;;1.20;1.10;;;;;;;;;;5033380;28;20259;-66
2022/11/26 05:02:05;;;;;;;2.23;1.10;;;;;;;;;;5036530;28;20212;-64
2022/11/26 05:04:34;;;;;;;3.47;1.47;;;;;;;;;;5039927;28;20246;-64
2022/11/26 05:07:01;;;;;;;1.63;1.10;;;;;;;;;;5031724;28;20196;-65
2022/11/26 05:09:28;;;;;;;2.80;1.30;;;;;;;;;;5034157;28;20212;-65
2022/11/26 05:11:55;;;;;;;1.70;1.60;;;;;;;;;;5038955;28;20200;-65
2022/11/26 05:14:22;;;;;;;1.17;1.03;;;;;;;;;;5042491;28;20200;-64
2022/11/26 05:16:49;;;;;;;5.30;1.10;;;;;;;;;;5046149;28;20200;-65
2022/11/26 05:19:16;;;;;;;1.43;1.33;;;;;;;;;;5039448;28;20212;-65
2022/11/26 05:21:45;;;;;;;3.43;2.13;;;;;;;;;;5050803;28;20585;-65
2022/11/26 05:24:12;;;;;;;1.70;1.50;;;;;;;;;;5038142;28;20226;-65
2022/11/26 05:26:39;;;;;;;5.37;1.93;;;;;;;;;;5047566;28;20207;-64
2022/11/26 05:29:06;;;;;;;1.47;1.37;;;;;;;;;;5044482;28;20203;-65
2022/11/26 05:31:33;;;;;;;3.17;1.00;;;;;;;;;;5042440;28;20318;-65
2022/11/26 05:34:00;;;;;;;1.30;1.20;;;;;;;;;;5032490;28;20291;-65
2022/11/26 05:36:27;;;;;;;2.77;1.80;;;;;;;;;;5039188;28;20203;-65
2022/11/26 05:38:56;;;;;;;3.07;1.30;;;;;;;;;;5044897;28;20210;-65
2022/11/26 05:41:23;;;;;;;2.83;0.97;;;;;;;;;;5049510;28;20219;-64
2022/11/26 05:43:50;;;;;;;10.17;2.43;;;;;;;;;;5046905;28;20663;-65
2022/11/26 05:46:18;;;;;;;1.20;1.20;;;;;;;;;;5044063;28;20695;-65
2022/11/26 05:48:45;;;;;;;5.27;1.80;;;;;;;;;;5036654;28;20223;-65
2022/11/26 05:51:12;;;;;;;2.00;1.40;;;;;;;;;;5038954;28;20706;-65
2022/11/26 05:53:39;;;;;;;2.27;1.67;;;;;;;;;;5040139;28;20586;-65
2022/11/26 05:56:08;;;;;;;7.67;1.60;;;;;;;;;;5035619;28;20211;-65
2022/11/26 05:58:36;;;;;;;1.60;0.90;;;;;;;;;;5037442;28;20242;-65
2022/11/26 06:01:07;;;;;;;2.60;1.80;;;;;;;;;;5046207;28;20630;-65
2022/11/26 06:03:34;;;;;;;2.37;1.57;;;;;;;;;;5042386;28;20671;-65
2022/11/26 06:06:01;;;;;;;2.07;1.53;;;;;;;;;;5037281;28;20733;-65
2022/11/26 06:08:28;;;;;;;2.37;1.23;;;;;;;;;;5033483;28;20209;-65
2022/11/26 06:10:55;;;;;;;2.63;1.60;;;;;;;;;;5033883;28;20207;-65
2022/11/26 06:13:24;;;;;;;2.07;1.17;;;;;;;;;;5033172;28;20208;-65
2022/11/26 06:15:51;;;;;;;1.83;1.60;;;;;;;;;;5034605;28;20211;-65
2022/11/26 06:18:18;;;;;;;4.83;1.37;;;;;;;;;;5035499;28;20588;-65
2022/11/26 06:20:46;;;;;;;3.77;1.70;;;;;;;;;;5040535;28;20305;-64
2022/11/26 06:23:13;;;;;;;2.00;1.73;;;;;;;;;;5045309;28;20200;-65
2022/11/26 06:25:40;;;;;;;4.03;1.90;;;;;;;;;;5033118;28;20228;-65
2022/11/26 06:28:07;;;;;;;5.43;1.30;;;;;;;;;;5040531;28;20207;-65
2022/11/26 06:30:35;;;;;;;1.90;1.80;;;;;;;;;;5035711;28;20215;-65
2022/11/26 06:33:02;;;;;;;2.57;1.60;;;;;;;;;;5047177;28;20217;-65
2022/11/26 06:35:30;;;;;;;2.53;2.17;;;;;;;;;;5044416;28;20215;-65
2022/11/26 06:37:57;;;;;;;4.90;1.73;;;;;;;;;;5030341;28;20215;-65
2022/11/26 06:40:24;;;;;;;3.60;1.83;;;;;;;;;;5040253;28;20204;-65
2022/11/26 06:42:51;;;;;;;3.80;1.73;;;;;;;;;;5031888;28;20693;-65
2022/11/26 06:45:18;;;;;;;1.87;1.43;;;;;;;;;;5045134;28;20220;-65
2022/11/26 06:47:48;;;;;;;2.00;1.83;;;;;;;;;;5041933;28;20215;-65
2022/11/26 06:50:15;;;;;;;13.03;2.10;;;;;;;;;;5033974;28;20201;-64
2022/11/26 06:52:42;;;;;;;3.73;2.57;;;;;;;;;;5041913;28;20208;-65
2022/11/26 06:55:09;;;;;;;2.50;2.20;;;;;;;;;;5046928;28;20245;-65
2022/11/26 06:57:36;;;;;;;8.80;1.87;;;;;;;;;;5030709;28;20205;-65
2022/11/26 07:00:04;;;;;;;4.90;2.30;;;;;;;;;;5037334;28;20658;-65
2022/11/26 07:02:34;;;;;;;1.30;1.30;;;;;;;;;;5032324;28;20222;-66
2022/11/26 07:05:02;;;;;;;3.10;1.33;;;;;;;;;;5034028;28;20227;-66
2022/11/26 07:07:29;;;;;;;6.23;1.50;;;;;;;;;;5047086;28;20200;-65
2022/11/26 07:09:56;;;;;;;1.93;1.77;;;;;;;;;;5037300;28;20677;-61
2022/11/26 07:12:23;;;;;;;5.60;2.03;;;;;;;;;;5030115;28;20223;-65
2022/11/26 07:14:51;;;;;;;6.73;2.23;;;;;;;;;;5037458;28;20222;-65
2022/11/26 07:17:18;;;;;;;6.80;1.80;;;;;;;;;;5043632;28;20229;-65
2022/11/26 07:19:45;;;;;;;2.37;2.17;;;;;;;;;;5035974;28;20452;-65
2022/11/26 07:22:13;;;;;;;4.13;2.00;;;;;;;;;;5036270;28;20214;-63
2022/11/26 07:24:40;;;;;;;3.70;2.13;;;;;;;;;;5038816;28;20259;-66
2022/11/26 07:27:08;;;;;;;1.60;1.53;;;;;;;;;;5038463;28;20200;-64
2022/11/26 07:29:35;;;;;;;12.47;2.33;;;;;;;;;;5034177;28;20211;-63
2022/11/26 07:32:02;;;;;;;6.23;2.27;;;;;;;;;;5045768;28;20575;-66
2022/11/26 07:34:29;;;;;;;2.63;2.07;;;;;;;;;;5036388;28;20528;-64
2022/11/26 07:36:57;;;;;;;1.93;1.83;;;;;;;;;;5034949;28;20214;-64
2022/11/26 07:39:25;;;;;;;8.20;3.67;;;;;;;;;;5030230;28;20212;-65
2022/11/26 07:41:52;;;;;;;12.30;6.43;;;;;;;;;;5037662;28;20208;-65
2022/11/26 07:44:19;;;;;;;3.63;2.80;;;;;;;;;;5036137;28;20208;-65
2022/11/26 07:46:46;;;;;;;3.17;2.20;;;;;;;;;;5034857;28;20220;-64
2022/11/26 07:49:14;;;;;;;2.47;1.73;;;;;;;;;;5033928;28;20713;-64
2022/11/26 07:51:41;;;;;;;6.57;2.70;;;;;;;;;;5032965;28;20211;-65
2022/11/26 07:54:09;;;;;;;4.80;2.70;;;;;;;;;;5030160;28;20199;-65
2022/11/26 07:56:37;;;;;;;3.70;2.67;;;;;;;;;;5030673;28;20568;-65
2022/11/26 07:59:04;;;;;;;3.40;3.10;;;;;;;;;;5035208;28;20228;-65
2022/11/26 08:01:31;;;;;;;9.30;3.07;;;;;;;;;;5036968;28;20277;-65
2022/11/26 08:03:59;;;;;;;6.97;3.13;;;;;;;;;;5045298;28;20207;-65
2022/11/26 08:06:28;;;;;;;2.67;2.47;;;;;;;;;;5039711;28;20224;-63
2022/11/26 08:08:55;;;;;;;7.73;2.70;;;;;;;;;;5046980;28;20208;-64
2022/11/26 08:11:23;;;;;;;2.60;2.40;;;;;;;;;;5044367;28;20549;-62
2022/11/26 08:13:53;;;;;;;3.30;2.40;;;;;;;;;;5030551;28;20571;-63
2022/11/26 08:16:20;;;;;;;3.07;2.40;;;;;;;;;;5042579;28;20204;-63
2022/11/26 08:18:47;;;;;;;2.60;1.93;;;;;;;;;;5032972;28;20215;-65
2022/11/26 08:21:14;;;;;;;3.73;2.53;;;;;;;;;;5038411;28;20204;-63
2022/11/26 08:23:41;;;;;;;2.73;2.53;;;;;;;;;;5034097;28;20211;-65
2022/11/26 08:26:09;;;;;;;6.00;2.77;;;;;;;;;;5036636;28;20228;-65
2022/11/26 08:28:36;;;;;;;5.27;2.60;;;;;;;;;;5037436;28;20574;-63
2022/11/26 08:31:05;;;;;;;5.13;2.70;;;;;;;;;;5034351;28;20223;-71
2022/11/26 08:33:38;;;;;;;5.13;2.53;;;;;;;;;;5036607;28;20212;-65
2022/11/26 08:36:37;;;;;;;3.13;2.73;;;;;;;;;;5035014;28;20204;-65
2022/11/26 08:39:04;;;;;;;6.70;3.40;;;;;;;;;;5033878;28;20207;-65
2022/11/26 08:41:31;;;;;;;7.00;2.80;;;;;;;;;;5041391;28;20196;-65
2022/11/26 08:43:58;;;;;;;4.53;3.20;;;;;;;;;;5035906;28;20200;-63
2022/11/26 08:46:27;;;;;;;3.30;2.87;;;;;;;;;;5030343;28;20228;-64
2022/11/26 08:48:55;;;;;;;8.80;3.37;;;;;;;;;;5040338;28;20204;-65
2022/11/26 08:51:22;;;;;;;9.50;3.00;;;;;;;;;;5038336;28;20208;-64
2022/11/26 08:53:50;;;;;;;8.53;3.27;;;;;;;;;;5040830;28;20228;-65
2022/11/26 08:56:17;;;;;;;4.60;3.23;;;;;;;;;;5047442;28;20224;-64
2022/11/26 08:58:45;;;;;;;4.70;3.23;;;;;;;;;;5045940;28;20605;-62
2022/11/26 09:01:13;;;;;;;12.13;3.10;;;;;;;;;;5042901;28;20225;-64
2022/11/26 09:03:41;;;;;;;5.93;3.27;;;;;;;;;;5044095;28;20217;-64
2022/11/26 09:06:09;;;;;;;7.73;2.87;;;;;;;;;;5050506;28;20219;-64
2022/11/26 09:09:11;;;;;;;5.37;2.97;;;;;;;;;;5044163;28;20215;-64
2022/11/26 09:11:24;;;;;;;3.30;2.47;;;;;;;;;;5040561;28;20322;-64
2022/11/26 09:13:52;;;;;;;4.30;2.53;;;;;;;;;;5046151;28;20208;-64
2022/11/26 09:16:19;;;;;;;4.77;2.60;;;;;;;;;;5034758;28;20196;-64
2022/11/26 09:18:47;;;;;;;5.97;3.63;;;;;;;;;;5040688;28;20729;-62
2022/11/26 09:21:14;;;;;;;7.27;3.13;;;;;;;;;;5041492;28;20568;-62
2022/11/26 09:23:41;;;;;;;7.40;3.40;;;;;;;;;;5034564;28;20212;-62
2022/11/26 09:26:09;;;;;;;2.87;2.60;;;;;;;;;;5040091;28;20593;-63
2022/11/26 09:28:36;;;;;;;8.90;3.20;;;;;;;;;;5038952;28;20273;-63
2022/11/26 09:31:03;;;;;;;4.23;2.60;;;;;;;;;;5046008;28;20291;-62
2022/11/26 09:33:30;;;;;;;5.13;2.87;;;;;;;;;;5037479;28;20216;-63
2022/11/26 09:36:05;;;;;;;2.63;2.37;;;;;;;;;;5035098;28;20208;-64
2022/11/26 09:38:32;;;;;;;5.00;2.77;;;;;;;;;;5041530;28;20233;-64
2022/11/26 09:41:04;;;;;;;2.50;2.40;;;;;;;;;;5032516;28;20213;-64
2022/11/26 09:43:35;;;;;;;2.30;2.10;;;;;;;;;;5038366;28;20204;-64
2022/11/26 09:46:02;;;;;;;3.27;2.00;;;;;;;;;;5051526;28;20239;-64
2022/11/26 09:48:31;;;;;;;3.53;1.87;;;;;;;;;;5040507;28;20581;-67
2022/11/26 09:51:02;;;;;;;7.97;2.97;;;;;;;;;;5032540;28;20208;-66
2022/11/26 09:53:33;;;;;;;7.73;4.40;;;;;;;;;;5049652;28;20207;-66
2022/11/26 09:56:01;;;;;;;3.73;2.43;;;;;;;;;;5032179;28;20307;-67
2022/11/26 09:58:33;;;;;;;1.80;1.70;;;;;;;;;;5032122;28;20242;-68
2022/11/26 10:01:01;;;;;;;2.23;1.83;;;;;;;;;;5041761;28;20581;-64
2022/11/26 10:03:31;;;;;;;5.20;2.73;;;;;;;;;;5032210;28;20215;-64
2022/11/26 10:06:06;;;;;;;5.17;2.90;;;;;;;;;;5033942;28;20231;-62
2022/11/26 10:08:49;;;;;;;4.50;3.27;;;;;;;;;;5043728;28;20246;-65
2022/11/26 10:11:19;;;;;;;12.40;5.97;;;;;;;;;;5042338;28;20207;-64
2022/11/26 10:13:49;;;;;;;5.90;3.27;;;;;;;;;;5049001;28;20219;-62
2022/11/26 10:16:25;;;;;;;20.83;6.33;;;;;;;;;;5051654;28;20196;-63
2022/11/26 10:18:57;;;;;;;23.67;5.77;;;;;;;;;;5045487;28;20754;-63
2022/11/26 10:21:26;;;;;;;12.73;5.97;;;;;;;;;;5052397;28;20238;-68
2022/11/26 10:23:57;;;;;;;11.50;5.50;;;;;;;;;;5041848;28;20208;-65
2022/11/26 10:26:26;;;;;;;4.47;2.57;;;;;;;;;;5029358;28;20224;-65
2022/11/26 10:28:57;;;;;;;5.60;3.03;;;;;;;;;;5036737;28;20647;-65
2022/11/26 10:31:25;;;;;;;8.93;3.63;;;;;;;;;;5031791;28;20213;-65
2022/11/26 10:33:55;;;;;;;6.23;4.13;;;;;;;;;;5042343;28;20709;-64
2022/11/26 10:36:24;;;;;;;12.00;5.37;;;;;;;;;;5041842;28;20200;-64
2022/11/26 10:38:51;;;;;;;9.20;4.80;;;;;;;;;;5039902;28;20207;-64
2022/11/26 10:41:20;;;;;;;8.33;4.57;;;;;;;;;;5038456;28;20207;-64
2022/11/26 10:43:47;;;;;;;11.90;4.70;;;;;;;;;;5038868;28;20608;-64
2022/11/26 10:46:31;;;;;;;3.67;2.70;;;;;;;;;;5040871;28;20231;-65
2022/11/26 10:49:15;;;;;;;4.13;2.40;;;;;;;;;;5039460;28;20204;-64
2022/11/26 10:51:42;;;;;;;6.37;3.07;;;;;;;;;;5039582;28;20212;-65
2022/11/26 10:54:22;;;;;;;4.17;2.20;;;;;;;;;;5039433;28;20208;-65
2022/11/26 10:56:52;;;;;;;5.43;2.80;;;;;;;;;;5039808;28;20241;-65
2022/11/26 10:59:20;;;;;;;1.60;1.50;;;;;;;;;;5039355;28;20259;-65
2022/11/26 11:01:47;;;;;;;1.80;1.60;;;;;;;;;;5040025;28;20211;-65
2022/11/26 11:04:23;;;;;;;7.37;3.40;;;;;;;;;;5039872;28;20203;-65
2022/11/26 11:06:50;;;;;;;1.83;1.70;;;;;;;;;;5035901;28;20273;-64
2022/11/26 11:09:23;;;;;;;5.17;2.97;;;;;;;;;;5040170;28;20212;-65
2022/11/26 11:12:08;;;;;;;5.80;2.73;;;;;;;;;;5036146;28;20318;-65
2022/11/26 11:14:35;;;;;;;5.53;2.83;;;;;;;;;;5039495;28;20212;-65
2022/11/26 11:17:02;;;;;;;3.80;2.10;;;;;;;;;;5032689;28;20200;-65
2022/11/26 11:19:29;;;;;;;3.80;1.60;;;;;;;;;;5031723;28;20682;-64
2022/11/26 11:21:56;;;;;;;2.27;2.07;;;;;;;;;;5029922;28;20217;-65
2022/11/26 11:24:25;;;;;;;0.97;0.97;;;;;;;;;;5031447;28;20204;-64
2022/11/26 11:26:55;;;;;;;6.03;2.10;;;;;;;;;;5030382;28;20250;-64
2022/11/26 11:29:27;;;;;;;1.50;1.40;;;;;;;;;;5035778;28;20205;-63
2022/11/26 11:31:54;;;;;;;2.13;1.93;;;;;;;;;;5031319;28;20201;-65
2022/11/26 11:34:22;;;;;;;3.33;1.60;;;;;;;;;;5029749;28;20208;-66
2022/11/26 11:36:59;;;;;;;1.90;1.80;;;;;;;;;;5030682;28;20590;-65
2022/11/26 11:39:30;;;;;;;2.40;1.67;;;;;;;;;;5031361;28;20200;-65
2022/11/26 11:41:58;;;;;;;3.00;1.70;;;;;;;;;;5042492;28;20208;-75
2022/11/26 11:44:27;;;;;;;1.73;1.43;;;;;;;;;;5039959;28;20745;-72
2022/11/26 11:47:07;;;;;;;2.30;1.67;;;;;;;;;;5030045;28;20243;-65
2022/11/26 11:49:44;;;;;;;1.70;1.60;;;;;;;;;;5029930;28;20224;-68
2022/11/26 11:52:16;;;;;;;4.33;1.70;;;;;;;;;;5029807;28;20211;-65
2022/11/26 11:54:48;;;;;;;1.40;1.30;;;;;;;;;;5029900;28;20231;-64
2022/11/26 11:57:22;;;;;;;1.47;1.37;;;;;;;;;;5029529;28;20671;-64
2022/11/26 12:00:10;;;;;;;1.77;1.30;;;;;;;;;;5029818;28;20605;-63
2022/11/26 12:02:48;;;;;;;1.63;1.50;;;;;;;;;;5030014;28;20694;-63
2022/11/26 12:05:27;;;;;;;3.87;1.77;;;;;;;;;;5042943;28;20223;-62
2022/11/26 12:07:58;;;;;;;5.90;1.83;;;;;;;;;;5036891;28;20227;-68
2022/11/26 12:10:27;;;;;;;2.23;1.57;;;;;;;;;;5031123;28;20208;-64
2022/11/26 12:12:57;;;;;;;3.53;1.63;;;;;;;;;;5031110;28;20207;-65
2022/11/26 12:15:27;;;;;;;4.37;1.23;;;;;;;;;;5030606;28;20217;-65
2022/11/26 12:17:57;;;;;;;1.30;1.27;;;;;;;;;;5033092;28;20212;-69
2022/11/26 12:20:27;;;;;;;5.40;1.50;;;;;;;;;;5036711;28;20203;-68
2022/11/26 12:22:58;;;;;;;2.77;1.50;;;;;;;;;;5045425;28;20211;-68
2022/11/26 12:25:28;;;;;;;1.97;1.47;;;;;;;;;;5029426;28;20218;-68
2022/11/26 12:28:00;;;;;;;1.20;1.13;;;;;;;;;;5028984;28;20235;-67
2022/11/26 12:30:30;;;;;;;1.53;1.43;;;;;;;;;;5034965;28;20204;-67
2022/11/26 12:33:00;;;;;;;1.30;1.30;;;;;;;;;;5032953;28;20214;-65
2022/11/26 12:35:29;;;;;;;6.73;1.83;;;;;;;;;;5028802;28;20208;-64
2022/11/26 12:37:58;;;;;;;1.50;1.40;;;;;;;;;;5045517;28;20210;-65
2022/11/26 12:40:32;;;;;;;1.70;1.30;;;;;;;;;;5049366;28;20219;-66
2022/11/26 12:43:02;;;;;;;1.37;1.37;;;;;;;;;;5048964;28;20835;-66
2022/11/26 12:45:37;;;;;;;1.27;1.23;;;;;;;;;;5048931;28;20238;-66
2022/11/26 12:48:08;;;;;;;1.90;1.80;;;;;;;;;;5043897;28;20227;-67
2022/11/26 12:50:39;;;;;;;2.50;1.67;;;;;;;;;;5048866;28;20218;-66
2022/11/26 12:53:13;;;;;;;2.00;1.80;;;;;;;;;;5048933;28;20214;-66
2022/11/26 12:55:42;;;;;;;3.83;2.23;;;;;;;;;;5048475;28;20701;-66
2022/11/26 12:58:13;;;;;;;2.50;2.07;;;;;;;;;;5048280;28;20231;-66
2022/11/26 13:00:40;;;;;;;2.73;1.33;;;;;;;;;;5049195;28;20601;-67
2022/11/26 13:03:14;;;;;;;2.63;1.30;;;;;;;;;;5049104;28;20705;-67
2022/11/26 13:05:46;;;;;;;1.87;1.67;;;;;;;;;;5047525;28;20315;-66
2022/11/26 13:08:24;;;;;;;1.97;1.87;;;;;;;;;;5028725;28;20596;-66
2022/11/26 13:10:59;;;;;;;3.80;2.13;;;;;;;;;;5029073;28;20216;-66
2022/11/26 13:13:32;;;;;;;1.93;1.80;;;;;;;;;;5028836;28;20207;-66
2022/11/26 13:16:03;;;;;;;2.50;2.27;;;;;;;;;;5026153;28;20223;-67
2022/11/26 13:18:32;;;;;;;1.83;1.73;;;;;;;;;;5028420;28;20709;-67
2022/11/26 13:21:05;;;;;;;2.60;1.40;;;;;;;;;;5029647;28;20209;-66
2022/11/26 13:23:45;;;;;;;1.17;1.07;;;;;;;;;;5028621;28;20216;-67
2022/11/26 13:26:18;;;;;;;9.37;6.40;;;;;;;;;;5029370;28;20205;-66
2022/11/26 13:28:56;;;;;;;2.50;2.30;;;;;;;;;;5028496;28;20303;-65
2022/11/26 13:31:32;;;;;;;2.80;2.60;;;;;;;;;;5028960;28;20854;-67
2022/11/26 13:34:05;;;;;;;3.93;3.30;;;;;;;;;;5028836;28;20200;-66
2022/11/26 13:36:47;;;;;;;6.03;3.57;;;;;;;;;;5031232;28;20219;-69
2022/11/26 13:39:23;;;;;;;5.93;3.77;;;;;;;;;;5046017;28;20226;-62
2022/11/26 13:42:01;;;;;;;4.27;2.80;;;;;;;;;;5051392;28;20328;-61
2022/11/26 13:44:54;;;;;;;5.43;2.20;;;;;;;;;;5032878;28;20204;-63
2022/11/26 13:47:25;;;;;;;5.17;2.20;;;;;;;;;;5048839;28;20240;-67
2022/11/26 13:49:55;;;;;;;4.67;2.27;;;;;;;;;;5031863;28;20219;-64
2022/11/26 13:52:26;;;;;;;3.97;2.37;;;;;;;;;;5033746;28;20693;-64
2022/11/26 13:54:57;;;;;;;5.23;2.73;;;;;;;;;;5043232;28;20246;-64
2022/11/26 13:57:30;;;;;;;4.50;2.60;;;;;;;;;;5032929;28;20694;-64
2022/11/26 13:59:59;;;;;;;2.37;2.17;;;;;;;;;;5043830;28;20246;-68
2022/11/26 14:02:36;;;;;;;2.20;2.10;;;;;;;;;;5037930;28;20202;-66
2022/11/26 14:05:05;;;;;;;3.27;2.20;;;;;;;;;;5039400;28;20210;-67
2022/11/26 14:07:32;;;;;;;2.60;2.10;;;;;;;;;;5032138;28;20228;-67
2022/11/26 14:10:01;;;;;;;5.70;2.63;;;;;;;;;;5040292;28;20413;-66
2022/11/26 14:12:43;;;;;;;3.97;2.20;;;;;;;;;;5050024;28;20214;-67
2022/11/26 14:15:34;;;;;;;1.67;1.57;;;;;;;;;;5051102;28;20234;-66
2022/11/26 14:18:01;;;;;;;2.90;1.90;;;;;;;;;;5042801;28;20208;-65
2022/11/26 14:20:28;;;;;;;4.13;2.17;;;;;;;;;;5047368;28;20667;-66
2022/11/26 14:22:55;;;;;;;2.77;2.10;;;;;;;;;;5051282;28;20212;-66
2022/11/26 14:25:37;;;;;;;3.07;2.27;;;;;;;;;;5034221;28;20227;-66
2022/11/26 14:28:10;;;;;;;7.37;3.33;;;;;;;;;;5030874;28;20250;-66
2022/11/26 14:30:39;;;;;;;9.23;4.67;;;;;;;;;;5031434;28;20204;-67
2022/11/26 14:33:11;;;;;;;9.13;4.77;;;;;;;;;;5051106;28;20377;-67
2022/11/26 14:35:40;;;;;;;4.67;4.10;;;;;;;;;;5041404;28;20207;-66
2022/11/26 14:38:08;;;;;;;4.60;2.33;;;;;;;;;;5039788;28;20207;-67
2022/11/26 14:40:36;;;;;;;10.90;4.47;;;;;;;;;;5031419;28;20212;-67
2022/11/26 14:43:13;;;;;;;7.10;3.00;;;;;;;;;;5028802;28;20560;-67
2022/11/26 14:45:42;;;;;;;4.07;3.03;;;;;;;;;;5030424;28;20212;-66
2022/11/26 14:48:15;;;;;;;11.90;5.77;;;;;;;;;;5036573;28;20224;-67
2022/11/26 14:50:42;;;;;;;13.57;6.70;;;;;;;;;;5031459;28;20216;-67
2022/11/26 14:53:11;;;;;;;2.50;2.30;;;;;;;;;;5045852;28;20250;-67
2022/11/26 14:55:38;;;;;;;2.13;1.80;;;;;;;;;;5044404;28;20225;-67
2022/11/26 14:58:08;;;;;;;3.53;1.40;;;;;;;;;;5044573;28;20698;-71